Time;durP1;ratioP1;P1;durP2;ratioP2;P2;SDS_P1;SDS_P2;PMS_P1;PMS_P2;Temp;Humidity;BMP_temperature;BMP_pressure;BME280_temperature;BME280_humidity;BME280_pressure;Samples;Min_cycle;Max_cycle;Signal;HPM_P1;HPM_P2
2023/08/02 00:00:21;;;;;;;10.25;1.48;;;15.90;99.90;;;;;;5043889;28;20456;-37
2023/08/02 00:02:47;;;;;;;9.27;1.50;;;15.90;99.90;;;;;;5041694;28;20474;-37
2023/08/02 00:05:13;;;;;;;6.15;1.58;;;15.90;99.90;;;;;;5044951;28;20056;-37
2023/08/02 00:07:38;;;;;;;3.30;1.50;;;16.00;99.90;;;;;;5039456;28;20715;-38
2023/08/02 00:10:05;;;;;;;5.15;1.67;;;15.90;99.90;;;;;;5042266;28;20044;-38
2023/08/02 00:12:30;;;;;;;7.72;1.73;;;15.90;99.90;;;;;;5039995;28;20052;-38
2023/08/02 00:14:56;;;;;;;5.57;1.52;;;15.90;99.90;;;;;;5042972;28;20049;-37
2023/08/02 00:17:21;;;;;;;6.43;1.70;;;15.90;99.90;;;;;;5041535;28;20143;-38
2023/08/02 00:19:47;;;;;;;8.27;2.08;;;15.80;99.90;;;;;;5042398;28;20091;-38
2023/08/02 00:22:13;;;;;;;5.43;1.67;;;15.90;99.90;;;;;;5043720;28;20048;-38
2023/08/02 00:24:38;;;;;;;7.13;1.80;;;15.90;99.90;;;;;;5036020;28;20048;-38
2023/08/02 00:27:04;;;;;;;5.05;1.45;;;15.90;99.90;;;;;;5040308;28;20144;-46
2023/08/02 00:29:29;;;;;;;4.28;2.17;;;15.90;99.90;;;;;;5037872;28;20387;-39
2023/08/02 00:31:55;;;;;;;6.68;1.80;;;15.90;99.90;;;;;;5044627;28;20085;-38
2023/08/02 00:34:21;;;;;;;4.53;1.35;;;15.90;99.90;;;;;;5039280;28;20131;-37
2023/08/02 00:36:46;;;;;;;3.60;1.15;;;15.90;99.90;;;;;;5038302;28;20688;-37
2023/08/02 00:39:12;;;;;;;2.38;1.17;;;15.90;99.90;;;;;;5040332;28;20048;-38
2023/08/02 00:41:38;;;;;;;6.40;1.88;;;15.90;99.90;;;;;;5039297;28;20053;-38
2023/08/02 00:44:04;;;;;;;6.68;2.45;;;15.90;99.90;;;;;;5039554;28;20140;-38
2023/08/02 00:46:29;;;;;;;4.45;1.13;;;15.90;99.90;;;;;;5037184;28;20132;-37
2023/08/02 00:48:55;;;;;;;8.32;1.92;;;15.90;99.90;;;;;;5044316;28;20052;-38
2023/08/02 00:51:20;;;;;;;3.78;1.70;;;15.90;99.90;;;;;;5026517;28;20081;-38
2023/08/02 00:53:47;;;;;;;5.63;1.40;;;15.80;99.90;;;;;;5038077;28;20106;-37
2023/08/02 00:56:15;;;;;;;6.68;1.80;;;15.80;99.90;;;;;;5038767;28;20049;-38
2023/08/02 00:58:41;;;;;;;7.22;1.92;;;15.80;99.90;;;;;;5038648;28;20724;-38
2023/08/02 01:01:07;;;;;;;10.27;2.33;;;15.80;99.90;;;;;;5040446;28;20114;-43
2023/08/02 01:03:37;;;;;;;9.07;2.13;;;15.80;99.90;;;;;;5040086;28;20490;-37
2023/08/02 01:06:40;;;;;;;8.40;1.88;;;15.80;99.90;;;;;;5040581;28;20128;-38
2023/08/02 01:09:26;;;;;;;9.32;2.30;;;15.80;99.90;;;;;;5041466;28;20141;-37
2023/08/02 01:11:57;;;;;;;8.65;1.70;;;15.80;99.90;;;;;;5041748;28;20525;-37
2023/08/02 01:14:25;;;;;;;8.70;1.88;;;15.80;99.90;;;;;;5042353;28;20494;-37
2023/08/02 01:16:52;;;;;;;9.27;2.50;;;15.80;99.90;;;;;;5027984;28;20048;-38
2023/08/02 01:19:22;;;;;;;8.43;1.70;;;15.80;99.90;;;;;;5041400;28;20152;-42
2023/08/02 01:21:48;;;;;;;6.60;2.25;;;15.80;99.90;;;;;;5042284;28;20482;-37
2023/08/02 01:24:14;;;;;;;9.57;2.00;;;15.80;99.90;;;;;;5041735;28;20049;-38
2023/08/02 01:26:45;;;;;;;8.00;2.25;;;15.80;99.90;;;;;;5041154;28;20490;-37
2023/08/02 01:29:14;;;;;;;8.85;2.10;;;15.80;99.90;;;;;;5039014;28;20487;-38
2023/08/02 01:31:41;;;;;;;7.50;2.13;;;15.80;99.90;;;;;;5042602;28;20143;-38
2023/08/02 01:34:07;;;;;;;8.85;1.98;;;15.80;99.90;;;;;;5039765;28;20050;-38
2023/08/02 01:36:33;;;;;;;6.15;2.10;;;15.80;99.90;;;;;;5040991;28;20079;-37
2023/08/02 01:38:59;;;;;;;5.40;1.70;;;15.80;99.90;;;;;;5041368;28;20052;-37
2023/08/02 01:41:25;;;;;;;9.77;2.40;;;15.70;99.90;;;;;;5041910;28;20088;-38
2023/08/02 01:43:50;;;;;;;9.65;2.65;;;15.70;99.90;;;;;;5041189;28;20052;-37
2023/08/02 01:46:16;;;;;;;8.00;2.20;;;15.70;99.90;;;;;;5039916;28;20076;-37
2023/08/02 01:48:41;;;;;;;9.50;2.35;;;15.70;99.90;;;;;;5040044;28;20052;-37
2023/08/02 01:51:08;;;;;;;11.80;3.33;;;15.70;99.90;;;;;;5041799;28;20053;-45
2023/08/02 01:53:34;;;;;;;8.25;2.00;;;15.70;99.90;;;;;;5018960;28;20517;-52
2023/08/02 01:55:59;;;;;;;9.13;2.17;;;15.70;99.90;;;;;;5040808;28;20061;-38
2023/08/02 01:58:25;;;;;;;8.10;2.08;;;15.70;99.90;;;;;;5039788;28;20049;-37
2023/08/02 02:00:50;;;;;;;6.47;1.85;;;15.70;99.90;;;;;;5040520;28;20048;-38
2023/08/02 02:03:16;;;;;;;6.88;2.35;;;15.70;99.90;;;;;;5042116;28;20081;-39
2023/08/02 02:05:54;;;;;;;7.05;2.05;;;15.60;99.90;;;;;;5038258;28;20087;-37
2023/08/02 02:08:20;;;;;;;14.48;3.08;;;15.60;99.90;;;;;;5043184;28;20132;-38
2023/08/02 02:10:53;;;;;;;9.65;2.15;;;15.60;99.90;;;;;;5045667;28;20135;-37
2023/08/02 02:13:22;;;;;;;9.65;1.85;;;15.60;99.90;;;;;;5024730;28;20052;-37
2023/08/02 02:15:47;;;;;;;18.88;2.60;;;15.60;99.90;;;;;;5042925;28;20056;-38
2023/08/02 02:18:13;;;;;;;8.68;2.15;;;15.50;99.90;;;;;;5038375;28;20379;-38
2023/08/02 02:20:39;;;;;;;7.22;2.42;;;15.50;99.90;;;;;;5043801;28;20048;-38
2023/08/02 02:23:05;;;;;;;8.52;2.90;;;15.50;99.90;;;;;;5040718;28;20083;-37
2023/08/02 02:25:30;;;;;;;8.23;2.17;;;15.50;99.90;;;;;;5035242;28;20053;-38
2023/08/02 02:27:56;;;;;;;11.48;1.92;;;15.50;99.90;;;;;;5042014;28;20624;-37
2023/08/02 02:30:22;;;;;;;8.20;1.88;;;15.40;99.90;;;;;;5023820;28;20064;-38
2023/08/02 02:32:47;;;;;;;4.63;1.75;;;15.40;99.90;;;;;;5037238;28;20070;-37
2023/08/02 02:35:14;;;;;;;11.25;2.78;;;15.40;99.90;;;;;;5040909;28;20056;-37
2023/08/02 02:37:40;;;;;;;10.10;2.38;;;15.40;99.90;;;;;;5040557;28;20405;-38
2023/08/02 02:40:07;;;;;;;10.50;2.35;;;15.40;99.90;;;;;;5037392;28;20047;-37
2023/08/02 02:42:32;;;;;;;8.57;2.58;;;15.30;99.90;;;;;;5021047;28;20552;-38
2023/08/02 02:44:58;;;;;;;7.65;2.20;;;15.30;99.90;;;;;;5037967;28;20078;-37
2023/08/02 02:47:24;;;;;;;10.50;3.42;;;15.30;99.90;;;;;;5034081;28;20050;-38
2023/08/02 02:49:49;;;;;;;7.15;2.70;;;15.20;99.90;;;;;;5038528;28;20443;-38
2023/08/02 02:52:15;;;;;;;7.90;2.78;;;15.20;99.90;;;;;;5038375;28;20049;-37
2023/08/02 02:54:41;;;;;;;13.50;2.60;;;15.10;99.90;;;;;;5039950;28;20057;-38
2023/08/02 02:57:06;;;;;;;7.07;2.40;;;15.10;99.90;;;;;;5042590;28;20053;-37
2023/08/02 02:59:32;;;;;;;8.40;2.85;;;15.00;99.90;;;;;;5036542;28;20056;-37
2023/08/02 03:01:58;;;;;;;10.57;2.70;;;15.00;99.90;;;;;;5038405;28;20049;-38
2023/08/02 03:04:25;;;;;;;7.03;2.47;;;14.90;99.90;;;;;;5042599;28;20051;-37
2023/08/02 03:06:51;;;;;;;8.07;2.67;;;14.90;99.90;;;;;;5038915;28;20109;-39
2023/08/02 03:09:17;;;;;;;6.82;2.65;;;14.90;99.90;;;;;;5041072;28;20052;-37
2023/08/02 03:11:43;;;;;;;8.65;2.97;;;14.80;99.90;;;;;;5043490;28;20045;-37
2023/08/02 03:14:09;;;;;;;7.78;2.13;;;14.80;99.90;;;;;;5039141;28;20052;-37
2023/08/02 03:16:34;;;;;;;7.80;2.70;;;14.80;99.90;;;;;;5038527;28;20053;-38
2023/08/02 03:19:00;;;;;;;6.88;2.55;;;14.80;99.90;;;;;;5039893;28;20111;-36
2023/08/02 03:21:26;;;;;;;9.93;3.70;;;14.80;99.90;;;;;;5044469;28;20045;-38
2023/08/02 03:23:51;;;;;;;6.60;3.08;;;14.70;99.90;;;;;;5047177;28;20040;-38
2023/08/02 03:26:17;;;;;;;7.75;2.42;;;14.70;99.90;;;;;;5043517;28;20049;-37
2023/08/02 03:28:43;;;;;;;6.75;2.58;;;14.70;99.90;;;;;;5046523;28;20044;-37
2023/08/02 03:31:08;;;;;;;10.50;2.65;;;14.70;99.90;;;;;;5045815;28;20059;-37
2023/08/02 03:33:34;;;;;;;9.40;3.47;;;14.70;99.90;;;;;;5038311;28;21417;-37
2023/08/02 03:36:00;;;;;;;7.47;3.20;;;14.70;99.90;;;;;;5043599;28;20140;-38
2023/08/02 03:38:25;;;;;;;9.88;2.63;;;14.70;99.90;;;;;;5046241;28;20060;-37
2023/08/02 03:40:53;;;;;;;7.00;2.78;;;14.70;99.90;;;;;;5046542;28;20064;-39
2023/08/02 03:43:18;;;;;;;5.78;2.47;;;14.70;99.90;;;;;;5042542;28;20057;-37
2023/08/02 03:45:44;;;;;;;7.10;2.63;;;14.70;99.90;;;;;;5043829;28;20094;-38
2023/08/02 03:48:10;;;;;;;4.82;2.28;;;14.70;99.90;;;;;;5043635;28;20055;-38
2023/08/02 03:50:35;;;;;;;9.27;3.70;;;14.70;99.90;;;;;;5043492;28;20045;-37
2023/08/02 03:53:01;;;;;;;6.05;2.70;;;14.70;99.90;;;;;;5045385;28;20049;-46
2023/08/02 03:55:27;;;;;;;8.13;3.63;;;14.70;99.90;;;;;;5046463;28;20049;-37
2023/08/02 03:57:52;;;;;;;8.88;2.72;;;14.70;99.90;;;;;;5042919;28;20510;-38
2023/08/02 04:00:18;;;;;;;5.85;2.67;;;14.80;99.90;;;;;;5045015;28;20106;-38
2023/08/02 04:02:44;;;;;;;5.95;2.45;;;14.80;99.90;;;;;;5041617;28;20512;-37
2023/08/02 04:05:10;;;;;;;7.80;2.53;;;14.80;99.90;;;;;;5045599;28;20055;-37
2023/08/02 04:07:36;;;;;;;8.20;2.67;;;14.80;99.90;;;;;;5042032;28;20490;-37
2023/08/02 04:10:02;;;;;;;6.40;2.53;;;14.80;99.90;;;;;;5040238;28;20060;-42
2023/08/02 04:12:28;;;;;;;6.30;2.15;;;14.70;99.90;;;;;;5038377;28;21197;-37
2023/08/02 04:14:54;;;;;;;8.90;2.72;;;14.70;99.90;;;;;;5040321;28;20052;-37
2023/08/02 04:17:20;;;;;;;5.50;2.42;;;14.70;99.90;;;;;;5041348;28;20422;-38
2023/08/02 04:19:46;;;;;;;9.38;2.70;;;14.70;99.90;;;;;;5044854;28;20049;-38
2023/08/02 04:22:11;;;;;;;6.93;2.45;;;14.60;99.90;;;;;;5049935;28;20044;-38
2023/08/02 04:24:37;;;;;;;6.30;2.83;;;14.60;99.90;;;;;;5044825;28;20049;-37
2023/08/02 04:27:03;;;;;;;9.07;2.70;;;14.60;99.90;;;;;;5045925;28;20056;-37
2023/08/02 04:29:29;;;;;;;7.70;2.70;;;14.60;99.90;;;;;;5040832;28;20108;-37
2023/08/02 04:31:54;;;;;;;7.30;2.90;;;14.60;99.90;;;;;;5042997;28;20080;-37
2023/08/02 04:34:20;;;;;;;7.68;2.70;;;14.50;99.90;;;;;;5043760;28;20052;-37
2023/08/02 04:36:46;;;;;;;6.00;2.65;;;14.60;99.90;;;;;;5043489;28;20056;-37
2023/08/02 04:39:12;;;;;;;9.40;2.92;;;14.60;99.90;;;;;;5039304;28;20069;-37
2023/08/02 04:41:37;;;;;;;6.40;3.05;;;14.60;99.90;;;;;;5041959;28;20052;-39
2023/08/02 04:44:03;;;;;;;8.23;2.90;;;14.60;99.90;;;;;;5043727;28;20091;-37
2023/08/02 04:46:29;;;;;;;8.32;3.40;;;14.70;99.90;;;;;;5037793;28;20040;-38
2023/08/02 04:48:55;;;;;;;7.75;2.67;;;14.70;99.90;;;;;;5043373;28;20056;-38
2023/08/02 04:51:21;;;;;;;7.78;2.40;;;14.70;99.90;;;;;;5043351;28;20080;-39
2023/08/02 04:53:49;;;;;;;8.60;2.90;;;14.70;99.90;;;;;;5041434;28;20053;-38
2023/08/02 04:56:16;;;;;;;12.27;2.97;;;14.70;99.90;;;;;;5027767;28;20064;-37
2023/08/02 04:58:42;;;;;;;8.02;2.60;;;14.70;99.90;;;;;;5041676;28;20087;-38
2023/08/02 05:01:08;;;;;;;7.65;2.88;;;14.80;99.90;;;;;;5045250;28;20498;-37
2023/08/02 05:03:34;;;;;;;7.03;2.30;;;14.80;99.90;;;;;;5043556;28;20650;-37
2023/08/02 05:06:04;;;;;;;8.10;2.47;;;14.80;99.90;;;;;;5043281;28;20049;-37
2023/08/02 05:08:35;;;;;;;6.35;2.53;;;14.80;99.90;;;;;;5021100;28;20087;-38
2023/08/02 05:11:00;;;;;;;7.50;2.53;;;14.90;99.90;;;;;;5039724;28;20073;-38
2023/08/02 05:13:26;;;;;;;6.20;2.60;;;14.90;99.90;;;;;;5040291;28;20068;-37
2023/08/02 05:15:54;;;;;;;7.45;2.78;;;15.00;99.90;;;;;;5040195;28;20480;-38
2023/08/02 05:18:19;;;;;;;8.85;3.15;;;15.00;99.90;;;;;;5041916;28;20106;-46
2023/08/02 05:20:45;;;;;;;7.00;2.67;;;15.00;99.90;;;;;;5042027;28;20053;-38
2023/08/02 05:23:11;;;;;;;5.88;2.70;;;15.10;99.90;;;;;;5041432;28;20068;-37
2023/08/02 05:25:38;;;;;;;8.18;2.97;;;15.10;99.90;;;;;;5041922;28;20376;-37
2023/08/02 05:28:04;;;;;;;7.80;2.38;;;15.20;99.90;;;;;;5041968;28;20413;-37
2023/08/02 05:30:32;;;;;;;5.88;3.10;;;15.30;99.90;;;;;;5041062;28;20056;-37
2023/08/02 05:32:58;;;;;;;6.13;2.33;;;15.30;99.90;;;;;;5045397;28;20045;-38
2023/08/02 05:35:25;;;;;;;7.95;2.58;;;15.30;99.90;;;;;;5044328;28;20441;-38
2023/08/02 05:37:54;;;;;;;8.48;2.95;;;15.30;99.90;;;;;;5024657;28;20052;-37
2023/08/02 05:40:20;;;;;;;7.03;3.60;;;15.30;99.90;;;;;;5038512;28;20037;-38
2023/08/02 05:42:45;;;;;;;7.90;2.83;;;15.30;99.90;;;;;;5038730;28;20427;-37
2023/08/02 05:45:11;;;;;;;6.15;3.00;;;15.30;99.90;;;;;;5031214;28;20041;-37
2023/08/02 05:47:37;;;;;;;8.57;2.60;;;15.40;99.90;;;;;;5035576;28;20076;-37
2023/08/02 05:50:03;;;;;;;7.25;2.55;;;15.40;99.90;;;;;;5037053;28;20372;-37
2023/08/02 05:52:28;;;;;;;6.47;2.70;;;15.40;99.90;;;;;;5039177;28;20449;-37
2023/08/02 05:54:54;;;;;;;6.65;2.60;;;15.50;99.90;;;;;;5032582;28;20098;-37
2023/08/02 05:57:20;;;;;;;7.07;2.58;;;15.50;99.90;;;;;;5039343;28;20079;-37
2023/08/02 05:59:48;;;;;;;4.78;2.13;;;15.60;99.90;;;;;;5040293;28;20053;-37
2023/08/02 06:02:14;;;;;;;8.73;2.70;;;15.70;99.90;;;;;;5035922;28;20069;-37
2023/08/02 06:04:43;;;;;;;5.15;2.40;;;15.70;99.90;;;;;;5037181;28;20081;-38
2023/08/02 06:07:08;;;;;;;7.25;2.40;;;15.70;99.90;;;;;;5043754;28;20581;-37
2023/08/02 06:09:34;;;;;;;5.65;2.38;;;15.70;99.90;;;;;;5036810;28;20061;-36
2023/08/02 06:12:00;;;;;;;7.50;2.42;;;15.70;99.90;;;;;;5040922;28;20152;-39
2023/08/02 06:14:26;;;;;;;6.90;2.67;;;15.70;99.90;;;;;;5039950;28;20057;-37
2023/08/02 06:16:52;;;;;;;6.20;2.13;;;15.70;99.90;;;;;;5041994;28;20045;-37
2023/08/02 06:19:18;;;;;;;4.57;2.10;;;15.70;99.90;;;;;;5041166;28;20056;-37
2023/08/02 06:21:43;;;;;;;4.63;2.00;;;15.70;99.90;;;;;;5041362;28;20044;-37
2023/08/02 06:24:09;;;;;;;4.95;1.80;;;15.70;99.90;;;;;;5042185;28;20068;-38
2023/08/02 06:26:35;;;;;;;3.92;1.75;;;15.70;99.90;;;;;;5036634;28;20059;-38
2023/08/02 06:29:01;;;;;;;9.23;2.50;;;15.70;99.90;;;;;;5039983;28;20068;-37
2023/08/02 06:31:27;;;;;;;7.57;2.03;;;15.70;99.90;;;;;;5042138;28;20057;-37
2023/08/02 06:33:52;;;;;;;6.53;1.70;;;15.70;99.90;;;;;;5038196;28;20061;-37
2023/08/02 06:36:18;;;;;;;2.88;1.55;;;15.70;99.90;;;;;;5041176;28;20053;-36
2023/08/02 06:38:45;;;;;;;5.75;1.77;;;15.70;99.90;;;;;;5024776;28;20433;-37
2023/08/02 06:41:12;;;;;;;4.43;1.77;;;15.70;99.90;;;;;;5043405;28;20044;-38
2023/08/02 06:43:37;;;;;;;4.68;1.95;;;15.70;99.90;;;;;;5041104;28;20509;-37
2023/08/02 06:46:04;;;;;;;4.25;1.70;;;15.80;99.90;;;;;;5040013;28;20060;-37
2023/08/02 06:48:30;;;;;;;5.00;2.05;;;15.70;99.90;;;;;;5041316;28;20049;-37
2023/08/02 06:50:55;;;;;;;4.35;1.80;;;15.70;99.90;;;;;;5035198;28;20096;-38
2023/08/02 06:53:21;;;;;;;3.53;1.35;;;15.70;99.90;;;;;;5042981;28;20099;-37
2023/08/02 06:55:47;;;;;;;5.30;1.80;;;15.70;99.90;;;;;;5035582;28;20049;-37
2023/08/02 06:58:13;;;;;;;6.13;1.83;;;15.70;99.90;;;;;;5037217;28;20068;-38
2023/08/02 07:00:42;;;;;;;5.88;1.70;;;15.70;99.90;;;;;;5035714;28;20075;-43
2023/08/02 07:03:08;;;;;;;4.72;1.50;;;15.70;99.90;;;;;;5041037;28;20127;-37
2023/08/02 07:05:35;;;;;;;5.85;1.55;;;15.70;99.90;;;;;;5037632;28;20418;-38
2023/08/02 07:08:02;;;;;;;6.32;1.90;;;15.60;99.90;;;;;;5037293;28;20045;-38
2023/08/02 07:10:29;;;;;;;4.25;1.50;;;15.60;99.90;;;;;;5041061;28;20041;-40
2023/08/02 07:12:56;;;;;;;4.25;1.60;;;15.60;99.90;;;;;;5036066;28;20044;-38
2023/08/02 07:15:21;;;;;;;3.78;1.58;;;15.50;99.90;;;;;;5037719;28;20049;-38
2023/08/02 07:17:48;;;;;;;3.10;1.50;;;15.50;99.90;;;;;;5022450;28;20048;-37
2023/08/02 07:20:14;;;;;;;6.00;1.80;;;15.50;99.90;;;;;;5041542;28;20483;-37
2023/08/02 07:22:42;;;;;;;4.75;2.22;;;15.50;99.90;;;;;;5042780;28;20048;-38
2023/08/02 07:25:08;;;;;;;6.32;1.80;;;15.50;99.90;;;;;;5038993;28;20049;-38
2023/08/02 07:27:34;;;;;;;6.25;1.75;;;15.50;99.90;;;;;;5042194;28;20040;-37
2023/08/02 07:30:01;;;;;;;7.68;2.10;;;15.50;99.90;;;;;;5038521;28;20474;-38
2023/08/02 07:32:26;;;;;;;3.72;1.50;;;15.50;99.90;;;;;;5040722;28;20079;-37
2023/08/02 07:34:52;;;;;;;8.10;1.95;;;15.50;99.90;;;;;;5040388;28;20041;-38
2023/08/02 07:37:18;;;;;;;5.03;2.17;;;15.50;99.90;;;;;;5038629;28;20140;-38
2023/08/02 07:39:44;;;;;;;6.32;2.63;;;15.50;99.90;;;;;;5039758;28;20505;-38
2023/08/02 07:42:10;;;;;;;5.90;1.70;;;15.40;99.90;;;;;;5040176;28;20053;-37
2023/08/02 07:44:37;;;;;;;6.82;1.88;;;15.40;99.90;;;;;;5022342;28;20493;-38
2023/08/02 07:47:04;;;;;;;3.90;1.30;;;15.40;99.90;;;;;;5034242;28;20114;-38
2023/08/02 07:49:31;;;;;;;7.32;1.95;;;15.40;99.90;;;;;;5040870;28;20110;-37
2023/08/02 07:51:57;;;;;;;5.30;1.77;;;15.40;99.90;;;;;;5041387;28;20052;-38
2023/08/02 07:54:23;;;;;;;7.03;2.00;;;15.40;99.90;;;;;;5037665;28;20414;-38
2023/08/02 07:56:48;;;;;;;5.35;1.40;;;15.40;99.90;;;;;;5037431;28;20075;-38
2023/08/02 07:59:14;;;;;;;5.57;1.90;;;15.40;99.90;;;;;;5038012;28;20049;-38
2023/08/02 08:01:43;;;;;;;6.90;1.90;;;15.50;99.90;;;;;;5035019;28;20537;-37
2023/08/02 08:04:09;;;;;;;6.55;1.67;;;15.50;99.90;;;;;;5036690;28;20128;-37
2023/08/02 08:06:35;;;;;;;7.05;2.20;;;15.60;99.90;;;;;;5043034;28;20048;-37
2023/08/02 08:09:01;;;;;;;6.95;2.33;;;15.60;99.90;;;;;;5042801;28;20076;-36
2023/08/02 08:11:28;;;;;;;6.55;1.77;;;15.60;99.90;;;;;;5046854;28;20103;-40
2023/08/02 08:13:54;;;;;;;5.25;1.67;;;15.70;99.90;;;;;;5042825;28;20509;-38
2023/08/02 08:16:20;;;;;;;7.63;2.25;;;15.70;99.90;;;;;;5043202;28;20057;-37
2023/08/02 08:18:45;;;;;;;6.70;2.53;;;15.80;99.90;;;;;;5034658;28;20068;-37
2023/08/02 08:21:11;;;;;;;7.05;2.05;;;15.80;99.90;;;;;;5038752;28;20457;-37
2023/08/02 08:23:37;;;;;;;7.50;2.10;;;15.90;99.90;;;;;;5041353;28;20060;-38
2023/08/02 08:26:03;;;;;;;6.70;2.30;;;15.90;99.90;;;;;;5037227;28;20398;-37
2023/08/02 08:28:29;;;;;;;6.97;2.60;;;15.90;99.90;;;;;;5040265;28;20512;-37
2023/08/02 08:31:02;;;;;;;4.75;1.90;;;15.90;99.90;;;;;;5038629;28;20065;-38
2023/08/02 08:33:29;;;;;;;6.88;3.05;;;16.00;99.90;;;;;;5041401;28;20176;-38
2023/08/02 08:35:54;;;;;;;4.75;2.35;;;16.00;99.90;;;;;;5045633;28;20088;-37
2023/08/02 08:38:20;;;;;;;5.20;2.70;;;16.00;99.90;;;;;;5045530;28;20171;-37
2023/08/02 08:40:53;;;;;;;6.63;2.65;;;16.00;99.90;;;;;;5039390;28;20419;-37
2023/08/02 08:43:20;;;;;;;4.95;2.58;;;16.00;99.90;;;;;;5040944;28;20046;-37
2023/08/02 08:45:46;;;;;;;6.35;2.88;;;16.00;99.90;;;;;;5036330;28;20498;-38
2023/08/02 08:51:13;;;;;;;6.65;3.00;;;16.00;99.90;;;;;;5387921;23;20053;-88
2023/08/02 08:53:43;;;;;;;6.60;3.53;;;16.00;99.90;;;;;;5004103;28;20153;-35
2023/08/02 08:56:10;;;;;;;6.35;3.40;;;15.90;99.90;;;;;;4999825;28;20648;-35
2023/08/02 08:58:37;;;;;;;8.80;3.40;;;15.90;99.90;;;;;;5004511;28;20076;-35
2023/08/02 09:01:04;;;;;;;8.00;3.63;;;15.90;99.90;;;;;;4993555;28;21002;-35
2023/08/02 09:03:30;;;;;;;6.03;3.35;;;16.00;99.90;;;;;;5004587;28;20414;-35
2023/08/02 09:06:01;;;;;;;6.90;3.17;;;16.00;99.90;;;;;;4999994;28;20077;-35
2023/08/02 09:08:27;;;;;;;5.85;2.83;;;16.10;99.90;;;;;;5001740;28;20074;-37
2023/08/02 09:10:53;;;;;;;4.88;2.90;;;16.20;99.90;;;;;;5000406;28;20054;-35
2023/08/02 09:13:26;;;;;;;4.45;2.42;;;16.20;99.90;;;;;;5007359;28;20052;-35
2023/08/02 09:16:13;;;;;;;4.75;2.67;;;16.30;99.90;;;;;;5001547;28;20050;-35
2023/08/02 09:18:46;;;;;;;4.55;2.38;;;16.30;99.90;;;;;;5007383;28;20124;-36
2023/08/02 09:21:15;;;;;;;5.57;2.33;;;16.30;99.90;;;;;;5000924;28;20158;-35
2023/08/02 09:23:47;;;;;;;5.20;2.78;;;16.40;99.90;;;;;;5008546;28;20045;-35
2023/08/02 09:26:14;;;;;;;4.05;2.35;;;16.40;99.90;;;;;;5005990;28;20625;-35
2023/08/02 09:28:56;;;;;;;4.43;2.38;;;16.40;99.90;;;;;;5007560;28;20041;-35
2023/08/02 09:31:22;;;;;;;3.63;2.17;;;16.40;99.90;;;;;;4999833;28;20054;-35
2023/08/02 09:33:52;;;;;;;4.15;2.08;;;16.50;99.90;;;;;;5003307;28;20506;-35
2023/08/02 09:36:27;;;;;;;4.30;2.13;;;16.50;99.90;;;;;;5002507;28;20068;-35
2023/08/02 09:39:09;;;;;;;5.60;2.00;;;16.60;99.90;;;;;;5004696;28;20069;-35
2023/08/02 09:41:35;;;;;;;4.65;1.85;;;16.60;99.90;;;;;;4996538;28;20057;-35
2023/08/02 09:44:01;;;;;;;3.88;2.05;;;16.60;99.90;;;;;;5006333;28;20055;-35
2023/08/02 09:46:33;;;;;;;3.25;1.80;;;16.60;99.90;;;;;;5005678;28;20041;-35
2023/08/02 09:49:00;;;;;;;2.70;1.73;;;16.60;99.90;;;;;;5002237;28;20052;-35
2023/08/02 09:51:39;;;;;;;3.88;1.70;;;16.60;99.90;;;;;;5004581;28;20061;-35
2023/08/02 09:54:04;;;;;;;3.58;1.30;;;16.60;99.90;;;;;;5010000;28;20490;-35
2023/08/02 09:56:33;;;;;;;2.45;1.42;;;16.60;99.90;;;;;;5006019;28;20133;-35
2023/08/02 09:58:59;;;;;;;4.60;1.23;;;16.70;99.90;;;;;;5001422;28;20050;-35
2023/08/02 10:01:25;;;;;;;1.90;1.02;;;16.70;99.90;;;;;;5000876;28;20517;-35
2023/08/02 10:03:55;;;;;;;2.03;1.15;;;16.80;99.90;;;;;;5001720;28;20430;-36
2023/08/02 10:06:41;;;;;;;2.20;1.20;;;16.80;99.90;;;;;;5001991;28;20620;-35
2023/08/02 10:09:08;;;;;;;2.22;0.88;;;16.80;99.90;;;;;;5005789;28;20557;-35
2023/08/02 10:11:52;;;;;;;1.60;0.80;;;16.80;99.90;;;;;;5005274;28;20522;-35
2023/08/02 10:14:19;;;;;;;2.80;0.95;;;16.80;99.90;;;;;;5004244;28;20125;-36
2023/08/02 10:16:46;;;;;;;3.05;1.65;;;16.80;99.90;;;;;;5011001;28;20331;-35
2023/08/02 10:19:13;;;;;;;2.35;1.35;;;16.90;99.90;;;;;;5006682;28;20415;-36
2023/08/02 10:21:43;;;;;;;2.80;1.40;;;16.90;99.90;;;;;;5000947;28;20049;-35
2023/08/02 10:24:09;;;;;;;2.33;1.17;;;17.00;99.90;;;;;;5007199;28;20058;-35
2023/08/02 10:26:35;;;;;;;2.65;1.17;;;17.10;99.90;;;;;;5014102;28;20471;-35
2023/08/02 10:29:02;;;;;;;2.33;1.08;;;17.10;99.90;;;;;;5005071;28;20080;-35
2023/08/02 10:31:29;;;;;;;2.28;1.30;;;17.20;99.90;;;;;;4969949;28;20041;-35
2023/08/02 10:33:55;;;;;;;2.10;1.23;;;17.20;99.90;;;;;;5003971;28;20136;-35
2023/08/02 10:36:20;;;;;;;1.67;1.10;;;17.30;99.90;;;;;;5000777;28;20143;-35
2023/08/02 10:38:48;;;;;;;1.48;0.90;;;17.30;99.90;;;;;;5006289;28;20049;-35
2023/08/02 10:41:27;;;;;;;1.70;1.08;;;17.30;99.90;;;;;;5006090;28;20041;-35
2023/08/02 10:43:53;;;;;;;2.25;1.10;;;17.30;99.90;;;;;;5005326;28;20073;-35
2023/08/02 10:46:27;;;;;;;1.30;0.90;;;17.30;99.90;;;;;;5012318;28;20085;-35
2023/08/02 10:48:55;;;;;;;2.45;1.17;;;17.30;99.90;;;;;;5004905;28;21211;-36
2023/08/02 10:51:27;;;;;;;1.63;1.00;;;17.30;99.90;;;;;;4999562;28;20096;-35
2023/08/02 10:54:14;;;;;;;2.30;1.52;;;17.40;99.90;;;;;;5001033;28;20045;-35
2023/08/02 10:56:52;;;;;;;1.27;0.80;;;17.50;99.90;;;;;;5004748;28;20069;-36
2023/08/02 10:59:23;;;;;;;1.00;0.70;;;17.60;99.90;;;;;;5008796;28;20076;-35
2023/08/02 11:02:07;;;;;;;1.63;1.07;;;17.70;99.90;;;;;;5004731;28;20082;-35
2023/08/02 11:04:37;;;;;;;1.90;1.10;;;17.80;99.90;;;;;;5002739;28;20042;-35
2023/08/02 11:07:18;;;;;;;1.98;1.30;;;18.00;99.90;;;;;;5003172;28;22415;-35
2023/08/02 11:09:45;;;;;;;2.15;1.30;;;18.30;99.90;;;;;;5001755;28;20042;-35
2023/08/02 11:12:12;;;;;;;1.58;1.00;;;18.50;99.90;;;;;;5001947;28;20521;-35
2023/08/02 11:14:46;;;;;;;2.45;1.27;;;18.70;99.90;;;;;;5001605;28;20057;-35
2023/08/02 11:17:16;;;;;;;2.15;1.48;;;19.00;99.90;;;;;;5003765;28;20065;-35
2023/08/02 11:19:49;;;;;;;3.55;1.10;;;19.40;99.90;;;;;;5006710;28;20533;-35
2023/08/02 11:22:16;;;;;;;2.03;1.17;;;19.70;99.90;;;;;;5007948;28;20046;-35
2023/08/02 11:24:56;;;;;;;2.10;1.33;;;20.00;99.90;;;;;;5003477;28;20406;-35
2023/08/02 11:27:23;;;;;;;1.60;1.00;;;20.30;99.90;;;;;;5006730;28;20054;-35
2023/08/02 11:30:05;;;;;;;1.75;1.10;;;20.50;99.90;;;;;;5004200;28;20499;-35
2023/08/02 11:32:32;;;;;;;1.58;1.15;;;20.70;99.90;;;;;;5004317;28;20305;-35
2023/08/02 11:34:58;;;;;;;1.45;1.02;;;20.70;99.90;;;;;;5004576;28;20050;-35
2023/08/02 11:37:24;;;;;;;1.65;1.10;;;20.80;99.90;;;;;;5004435;28;20048;-35
2023/08/02 11:39:55;;;;;;;1.85;1.20;;;21.00;99.90;;;;;;5006830;28;20180;-35
2023/08/02 11:42:20;;;;;;;2.42;1.23;;;21.00;99.90;;;;;;5009054;28;20073;-35
2023/08/02 11:44:46;;;;;;;1.63;1.20;;;20.90;99.90;;;;;;5008599;28;20046;-36
2023/08/02 11:47:12;;;;;;;2.03;1.10;;;20.80;99.90;;;;;;5010657;28;20069;-35
2023/08/02 11:49:57;;;;;;;1.55;1.23;;;20.80;99.90;;;;;;5006465;28;20058;-35
2023/08/02 11:52:33;;;;;;;1.85;1.33;;;20.80;99.90;;;;;;5009933;28;20075;-36
2023/08/02 11:55:00;;;;;;;2.75;1.10;;;20.90;99.90;;;;;;5005348;28;20147;-35
2023/08/02 11:57:26;;;;;;;1.52;1.13;;;21.10;99.90;;;;;;5007224;28;20058;-35
2023/08/02 11:59:56;;;;;;;1.80;1.00;;;21.40;99.90;;;;;;5011102;28;20054;-35
2023/08/02 12:02:33;;;;;;;1.48;1.00;;;21.60;99.90;;;;;;5008617;28;20053;-35
2023/08/02 12:05:08;;;;;;;2.40;1.20;;;21.60;99.90;;;;;;5006088;28;20116;-35
2023/08/02 12:07:35;;;;;;;2.33;1.00;;;21.60;99.90;;;;;;5009536;28;20054;-35
2023/08/02 12:10:04;;;;;;;1.80;1.15;;;21.60;99.90;;;;;;5005431;28;20077;-36
2023/08/02 12:12:32;;;;;;;2.83;1.27;;;21.50;99.90;;;;;;5012015;28;20049;-35
2023/08/02 12:14:58;;;;;;;2.85;1.20;;;21.60;99.90;;;;;;5004574;28;20050;-35
2023/08/02 12:17:25;;;;;;;1.92;1.15;;;21.70;99.90;;;;;;5006062;28;20057;-36
2023/08/02 12:19:51;;;;;;;2.08;1.08;;;21.70;99.90;;;;;;5011154;28;20052;-35
2023/08/02 12:22:18;;;;;;;1.88;1.23;;;21.80;99.90;;;;;;5013444;28;20140;-35
2023/08/02 12:24:44;;;;;;;1.52;0.90;;;21.70;99.90;;;;;;5009723;28;20048;-35
2023/08/02 12:27:17;;;;;;;3.50;2.13;;;21.60;99.90;;;;;;5003677;28;20129;-35
2023/08/02 12:29:44;;;;;;;3.08;1.13;;;21.40;99.90;;;;;;4999624;28;20045;-35
2023/08/02 12:32:11;;;;;;;1.35;0.90;;;21.30;99.90;;;;;;5006561;28;20045;-35
2023/08/02 12:34:36;;;;;;;1.75;1.17;;;21.10;99.90;;;;;;5004018;28;20072;-35
2023/08/02 12:37:03;;;;;;;1.83;1.10;;;21.00;99.90;;;;;;5010521;28;20058;-35
2023/08/02 12:39:29;;;;;;;3.05;0.90;;;20.90;99.90;;;;;;5010188;28;20054;-35
2023/08/02 12:41:55;;;;;;;1.70;1.10;;;20.90;99.90;;;;;;5007801;28;20053;-35
2023/08/02 12:44:21;;;;;;;1.60;0.88;;;21.00;99.90;;;;;;5014161;28;20460;-36
2023/08/02 12:46:47;;;;;;;1.55;1.08;;;21.20;99.90;;;;;;5004098;28;20518;-35
2023/08/02 12:49:13;;;;;;;0.98;0.70;;;21.30;99.90;;;;;;5000105;28;20050;-36